Time;durP1;ratioP1;P1;durP2;ratioP2;P2;SDS_P1;SDS_P2;PMS_P1;PMS_P2;Temp;Humidity;BMP_temperature;BMP_pressure;BME280_temperature;BME280_humidity;BME280_pressure;Samples;Min_cycle;Max_cycle;Signal;HPM_P1;HPM_P2
2021/04/17 00:01:07;;;;;;;8.77;3.60;;;;;;;;;;5051912;28;20017;-80
2021/04/17 00:03:32;;;;;;;8.93;3.23;;;;;;;;;;5053235;28;20017;-81
2021/04/17 00:05:57;;;;;;;6.53;3.27;;;;;;;;;;5051741;28;20376;-81
2021/04/17 00:08:22;;;;;;;7.30;3.57;;;;;;;;;;5053156;28;20024;-81
2021/04/17 00:10:47;;;;;;;6.67;3.20;;;;;;;;;;5052977;28;20020;-81
2021/04/17 00:13:13;;;;;;;7.80;3.57;;;;;;;;;;5053108;28;20025;-81
2021/04/17 00:15:38;;;;;;;10.73;3.07;;;;;;;;;;5052966;28;20041;-81
2021/04/17 00:18:04;;;;;;;8.50;3.70;;;;;;;;;;5052838;28;20048;-80
2021/04/17 00:20:29;;;;;;;8.70;3.17;;;;;;;;;;5051509;28;20017;-80
2021/04/17 00:22:54;;;;;;;8.53;2.80;;;;;;;;;;5052957;28;20024;-81
2021/04/17 00:25:19;;;;;;;7.53;2.90;;;;;;;;;;5052943;28;20052;-80
2021/04/17 00:27:44;;;;;;;8.13;3.53;;;;;;;;;;5052934;28;20051;-81
2021/04/17 00:30:10;;;;;;;7.43;3.23;;;;;;;;;;5050949;28;20044;-81
2021/04/17 00:32:35;;;;;;;5.77;3.13;;;;;;;;;;5052336;28;20024;-81
2021/04/17 00:35:00;;;;;;;6.27;3.47;;;;;;;;;;5038739;28;20448;-80
2021/04/17 00:37:25;;;;;;;11.17;3.90;;;;;;;;;;5052699;28;20017;-80
2021/04/17 00:39:51;;;;;;;8.00;3.10;;;;;;;;;;5052693;28;20013;-81
2021/04/17 00:42:16;;;;;;;9.10;4.27;;;;;;;;;;5050918;28;20028;-80
2021/04/17 00:44:41;;;;;;;7.90;3.73;;;;;;;;;;5052583;28;20372;-81
2021/04/17 00:47:07;;;;;;;7.90;3.87;;;;;;;;;;5052176;28;20112;-81
2021/04/17 00:49:33;;;;;;;8.97;3.87;;;;;;;;;;5052784;28;20017;-80
2021/04/17 00:51:58;;;;;;;8.80;3.70;;;;;;;;;;5052238;28;20107;-80
2021/04/17 00:54:24;;;;;;;9.30;3.30;;;;;;;;;;5052313;28;20012;-81
2021/04/17 00:56:49;;;;;;;12.23;3.60;;;;;;;;;;5052044;28;20021;-81
2021/04/17 00:59:14;;;;;;;6.77;3.50;;;;;;;;;;5051003;28;20039;-81
2021/04/17 01:01:39;;;;;;;15.50;3.83;;;;;;;;;;5052161;28;20063;-80
2021/04/17 01:04:07;;;;;;;9.13;3.67;;;;;;;;;;5052324;28;20032;-81
2021/04/17 01:06:42;;;;;;;10.00;3.33;;;;;;;;;;5052450;28;20067;-80
2021/04/17 01:09:09;;;;;;;10.47;3.57;;;;;;;;;;5050945;28;20108;-80
2021/04/17 01:11:40;;;;;;;9.73;3.90;;;;;;;;;;5052325;28;20025;-81
2021/04/17 01:14:06;;;;;;;10.23;3.70;;;;;;;;;;5050577;28;20445;-81
2021/04/17 01:16:32;;;;;;;10.33;3.90;;;;;;;;;;5050843;28;20032;-81
2021/04/17 01:18:57;;;;;;;8.07;3.40;;;;;;;;;;5049844;28;20132;-81
2021/04/17 01:21:23;;;;;;;8.93;3.93;;;;;;;;;;5049738;28;20020;-81
2021/04/17 01:23:53;;;;;;;7.17;4.03;;;;;;;;;;5049685;28;20029;-81
2021/04/17 01:26:20;;;;;;;11.90;4.10;;;;;;;;;;5049173;28;20140;-80
2021/04/17 01:28:50;;;;;;;8.37;3.70;;;;;;;;;;5050723;28;20041;-81
2021/04/17 01:31:16;;;;;;;10.20;3.67;;;;;;;;;;5049388;28;20469;-81
2021/04/17 01:33:43;;;;;;;10.67;4.00;;;;;;;;;;5049158;28;20024;-81
2021/04/17 01:36:09;;;;;;;12.80;4.00;;;;;;;;;;5049361;28;20021;-81
2021/04/17 01:38:40;;;;;;;8.57;3.87;;;;;;;;;;5051287;28;20021;-81
2021/04/17 01:41:09;;;;;;;9.93;4.27;;;;;;;;;;5050666;28;20031;-81
2021/04/17 01:43:35;;;;;;;9.37;4.13;;;;;;;;;;5051791;28;20021;-81
2021/04/17 01:46:08;;;;;;;9.23;3.70;;;;;;;;;;5050810;28;20022;-81
2021/04/17 01:48:33;;;;;;;9.43;3.90;;;;;;;;;;5066967;28;20036;-80
2021/04/17 01:51:00;;;;;;;8.50;3.90;;;;;;;;;;5051951;28;20052;-80
2021/04/17 01:53:27;;;;;;;9.67;4.47;;;;;;;;;;5048772;28;20024;-81
2021/04/17 01:55:53;;;;;;;14.10;4.10;;;;;;;;;;5051795;28;20024;-80
2021/04/17 01:58:20;;;;;;;8.57;4.40;;;;;;;;;;5051860;28;20039;-80
2021/04/17 02:00:45;;;;;;;10.37;4.43;;;;;;;;;;5051091;28;20032;-81
2021/04/17 02:03:10;;;;;;;9.67;4.23;;;;;;;;;;5051983;28;20031;-80
2021/04/17 02:05:36;;;;;;;11.20;4.40;;;;;;;;;;5051991;28;20020;-80
2021/04/17 02:08:01;;;;;;;12.20;5.00;;;;;;;;;;5055656;28;20070;-81
2021/04/17 02:10:26;;;;;;;12.17;4.50;;;;;;;;;;5055381;28;20025;-81
2021/04/17 02:12:52;;;;;;;11.20;4.10;;;;;;;;;;5055344;28;20040;-81
2021/04/17 02:15:17;;;;;;;15.67;4.40;;;;;;;;;;5054170;28;20025;-80
2021/04/17 02:17:50;;;;;;;12.87;4.47;;;;;;;;;;5070560;28;20108;-80
2021/04/17 02:20:18;;;;;;;12.43;4.47;;;;;;;;;;5066476;28;20029;-80
2021/04/17 02:22:44;;;;;;;9.83;5.07;;;;;;;;;;5055036;28;20049;-81
2021/04/17 02:25:10;;;;;;;10.87;4.07;;;;;;;;;;5053842;28;20055;-81
2021/04/17 02:27:35;;;;;;;8.33;4.33;;;;;;;;;;5054956;28;20023;-80
2021/04/17 02:30:00;;;;;;;15.20;4.83;;;;;;;;;;5055265;28;20013;-81
2021/04/17 02:32:26;;;;;;;13.70;5.13;;;;;;;;;;5055355;28;20025;-81
2021/04/17 02:34:51;;;;;;;9.83;5.57;;;;;;;;;;5054637;28;20062;-80
2021/04/17 02:37:16;;;;;;;10.97;4.43;;;;;;;;;;5053651;28;20476;-81
2021/04/17 02:39:42;;;;;;;11.23;4.93;;;;;;;;;;5054945;28;20044;-81
2021/04/17 02:42:07;;;;;;;9.20;4.70;;;;;;;;;;5053649;28;20085;-80
2021/04/17 02:44:33;;;;;;;15.03;4.70;;;;;;;;;;5053173;28;20021;-81
2021/04/17 02:46:58;;;;;;;11.03;5.27;;;;;;;;;;5053611;28;20162;-81
2021/04/17 02:49:23;;;;;;;9.20;4.50;;;;;;;;;;5054934;28;20469;-81
2021/04/17 02:51:49;;;;;;;7.07;4.30;;;;;;;;;;5054572;28;20078;-81
2021/04/17 02:54:14;;;;;;;14.03;4.80;;;;;;;;;;5053641;28;20222;-80
2021/04/17 02:56:39;;;;;;;12.03;4.83;;;;;;;;;;5069819;28;20025;-80
2021/04/17 02:59:05;;;;;;;12.43;4.87;;;;;;;;;;5054577;28;20059;-81
2021/04/17 03:01:30;;;;;;;11.63;4.80;;;;;;;;;;5052850;28;20480;-81
2021/04/17 03:03:55;;;;;;;11.53;5.10;;;;;;;;;;5054331;28;20013;-80
2021/04/17 03:06:20;;;;;;;19.03;5.20;;;;;;;;;;5052982;28;20054;-81
2021/04/17 03:08:45;;;;;;;11.63;4.90;;;;;;;;;;5054121;28;20021;-81
2021/04/17 03:11:10;;;;;;;12.60;5.03;;;;;;;;;;5053067;28;20491;-80
2021/04/17 03:13:36;;;;;;;10.60;5.03;;;;;;;;;;5053928;28;20067;-80
2021/04/17 03:16:01;;;;;;;14.70;4.83;;;;;;;;;;5053885;28;20383;-81
2021/04/17 03:18:26;;;;;;;10.57;4.90;;;;;;;;;;5052851;28;20100;-81
2021/04/17 03:20:51;;;;;;;10.00;4.43;;;;;;;;;;5052642;28;20108;-81
2021/04/17 03:23:17;;;;;;;11.00;4.77;;;;;;;;;;5052686;28;20167;-80
2021/04/17 03:25:42;;;;;;;14.20;5.27;;;;;;;;;;5069138;28;20017;-81
2021/04/17 03:28:07;;;;;;;10.43;4.87;;;;;;;;;;5054075;28;20049;-81
2021/04/17 03:30:32;;;;;;;10.50;4.40;;;;;;;;;;5052644;28;20107;-81
2021/04/17 03:32:58;;;;;;;12.60;5.87;;;;;;;;;;5053697;28;20021;-81
2021/04/17 03:35:24;;;;;;;18.03;5.00;;;;;;;;;;5052417;28;20029;-81
2021/04/17 03:37:49;;;;;;;15.10;5.60;;;;;;;;;;5052354;28;20017;-81
2021/04/17 03:40:14;;;;;;;11.07;5.13;;;;;;;;;;5054113;28;20096;-81
2021/04/17 03:42:40;;;;;;;11.30;5.20;;;;;;;;;;5053625;28;20437;-81
2021/04/17 03:45:05;;;;;;;12.07;5.70;;;;;;;;;;5053749;28;20021;-81
2021/04/17 03:47:31;;;;;;;13.20;6.03;;;;;;;;;;5053669;28;20104;-81
2021/04/17 03:49:56;;;;;;;14.03;6.07;;;;;;;;;;5051863;28;20021;-81
2021/04/17 03:52:21;;;;;;;14.80;5.97;;;;;;;;;;5053482;28;20032;-81
2021/04/17 03:54:46;;;;;;;14.33;6.17;;;;;;;;;;5053472;28;20380;-80
2021/04/17 03:57:12;;;;;;;13.37;5.33;;;;;;;;;;5052097;28;20055;-81
2021/04/17 03:59:37;;;;;;;14.53;6.17;;;;;;;;;;5068546;28;20112;-81
2021/04/17 04:02:02;;;;;;;12.57;5.80;;;;;;;;;;5051835;28;20029;-81
2021/04/17 04:04:28;;;;;;;15.23;6.00;;;;;;;;;;5053302;28;20018;-81
2021/04/17 04:06:53;;;;;;;14.43;5.80;;;;;;;;;;5053091;28;20469;-81
2021/04/17 04:09:18;;;;;;;12.70;5.77;;;;;;;;;;5051519;28;20017;-81
2021/04/17 04:11:44;;;;;;;13.03;5.77;;;;;;;;;;5068245;28;20021;-81
2021/04/17 04:14:09;;;;;;;13.53;5.77;;;;;;;;;;5052853;28;20021;-81
2021/04/17 04:16:34;;;;;;;14.13;5.93;;;;;;;;;;5051697;28;20048;-81
2021/04/17 04:18:59;;;;;;;13.60;6.10;;;;;;;;;;5051607;28;20143;-80
2021/04/17 04:21:24;;;;;;;12.70;6.30;;;;;;;;;;5053008;28;20476;-81
2021/04/17 04:23:50;;;;;;;13.03;6.33;;;;;;;;;;5052635;28;20021;-81
2021/04/17 04:26:15;;;;;;;13.60;6.67;;;;;;;;;;5053293;28;20028;-80
2021/04/17 04:28:40;;;;;;;12.93;5.63;;;;;;;;;;5051506;28;20469;-81
2021/04/17 04:31:05;;;;;;;14.20;6.20;;;;;;;;;;5052965;28;20023;-80
2021/04/17 04:33:31;;;;;;;17.00;6.07;;;;;;;;;;5051723;28;20029;-81
2021/04/17 04:35:56;;;;;;;14.60;5.83;;;;;;;;;;5050874;28;20082;-81
2021/04/17 04:38:21;;;;;;;20.83;8.10;;;;;;;;;;5052585;28;20032;-81
2021/04/17 04:40:46;;;;;;;14.40;5.93;;;;;;;;;;5052477;28;20028;-81
2021/04/17 04:43:12;;;;;;;16.80;5.83;;;;;;;;;;5052611;28;20028;-81
2021/04/17 04:45:37;;;;;;;16.27;6.07;;;;;;;;;;5052659;28;20017;-81
2021/04/17 04:48:03;;;;;;;14.87;6.30;;;;;;;;;;5051161;28;20024;-81
2021/04/17 04:50:28;;;;;;;13.77;6.30;;;;;;;;;;5052504;28;20106;-80
2021/04/17 04:52:53;;;;;;;16.40;6.13;;;;;;;;;;5050941;28;20021;-80
2021/04/17 04:55:19;;;;;;;14.57;6.27;;;;;;;;;;5052710;28;20031;-81
2021/04/17 04:57:44;;;;;;;16.23;6.20;;;;;;;;;;5052681;28;20021;-81
2021/04/17 05:00:09;;;;;;;20.17;7.00;;;;;;;;;;5050938;28;20453;-81
2021/04/17 05:02:34;;;;;;;13.03;6.30;;;;;;;;;;5052032;28;20103;-81
2021/04/17 05:05:00;;;;;;;14.43;6.10;;;;;;;;;;5051189;28;20407;-81
2021/04/17 05:07:25;;;;;;;15.07;6.70;;;;;;;;;;5052266;28;20013;-81
2021/04/17 05:09:50;;;;;;;14.27;6.10;;;;;;;;;;5052500;28;20013;-81
2021/04/17 05:12:15;;;;;;;14.00;6.40;;;;;;;;;;5052422;28;20361;-81
2021/04/17 05:14:41;;;;;;;12.43;6.03;;;;;;;;;;5051206;28;20111;-81
2021/04/17 05:17:06;;;;;;;16.10;6.80;;;;;;;;;;5052038;28;20109;-80
2021/04/17 05:19:31;;;;;;;16.03;6.27;;;;;;;;;;5052263;28;20024;-81
2021/04/17 05:21:56;;;;;;;12.70;5.97;;;;;;;;;;5050917;28;20029;-81
2021/04/17 05:24:21;;;;;;;17.97;7.07;;;;;;;;;;5052059;28;20013;-81
2021/04/17 05:26:47;;;;;;;19.30;6.73;;;;;;;;;;5051886;28;20020;-81
2021/04/17 05:29:12;;;;;;;16.27;6.50;;;;;;;;;;5050875;28;20414;-80
2021/04/17 05:31:37;;;;;;;15.30;6.40;;;;;;;;;;5051004;28;20380;-80
2021/04/17 05:34:02;;;;;;;15.67;6.50;;;;;;;;;;5052038;28;20013;-80
2021/04/17 05:36:28;;;;;;;15.03;6.47;;;;;;;;;;5052265;28;20017;-81
2021/04/17 05:38:53;;;;;;;15.17;6.60;;;;;;;;;;5050980;28;20022;-81
2021/04/17 05:41:19;;;;;;;14.90;6.23;;;;;;;;;;5069204;28;20021;-81
2021/04/17 05:43:44;;;;;;;11.90;5.77;;;;;;;;;;5055992;28;20024;-81
2021/04/17 05:46:09;;;;;;;15.80;6.27;;;;;;;;;;5053500;28;20369;-80
2021/04/17 05:48:34;;;;;;;17.23;6.10;;;;;;;;;;5042949;28;20029;-80
2021/04/17 05:51:00;;;;;;;17.93;6.90;;;;;;;;;;5071047;28;20393;-81
2021/04/17 05:53:25;;;;;;;16.47;6.50;;;;;;;;;;5055826;28;20033;-81
2021/04/17 05:55:50;;;;;;;14.00;6.53;;;;;;;;;;5054866;28;20456;-81
2021/04/17 05:58:16;;;;;;;14.47;6.10;;;;;;;;;;5054489;28;20453;-81
2021/04/17 06:00:41;;;;;;;15.00;6.63;;;;;;;;;;5053189;28;20407;-81
2021/04/17 06:03:06;;;;;;;16.47;6.33;;;;;;;;;;5054769;28;20123;-81
2021/04/17 06:05:31;;;;;;;11.87;5.93;;;;;;;;;;5054333;28;20040;-80
2021/04/17 06:07:57;;;;;;;15.40;5.73;;;;;;;;;;5052676;28;20017;-81
2021/04/17 06:10:22;;;;;;;18.80;5.07;;;;;;;;;;5054331;28;20021;-81
2021/04/17 06:12:48;;;;;;;13.63;5.97;;;;;;;;;;5052955;28;20033;-80
2021/04/17 06:15:13;;;;;;;14.20;5.17;;;;;;;;;;5054103;28;20036;-81
2021/04/17 06:17:39;;;;;;;16.93;6.10;;;;;;;;;;5053663;28;20036;-81
2021/04/17 06:20:05;;;;;;;16.13;5.97;;;;;;;;;;5053105;28;20078;-81
2021/04/17 06:22:30;;;;;;;15.53;6.10;;;;;;;;;;5060914;28;20032;-81
2021/04/17 06:24:55;;;;;;;13.60;5.27;;;;;;;;;;5055101;28;20087;-81
2021/04/17 06:27:20;;;;;;;9.97;4.93;;;;;;;;;;5053436;28;20028;-81
2021/04/17 06:29:45;;;;;;;16.43;5.77;;;;;;;;;;5055227;28;20024;-81
2021/04/17 06:32:10;;;;;;;11.50;5.43;;;;;;;;;;5053808;28;20025;-81
2021/04/17 06:34:36;;;;;;;11.70;5.30;;;;;;;;;;5053242;28;20025;-82
2021/04/17 06:37:01;;;;;;;13.97;6.40;;;;;;;;;;5054820;28;20100;-82
2021/04/17 06:39:26;;;;;;;17.30;8.70;;;;;;;;;;5053527;28;20032;-82
2021/04/17 06:41:55;;;;;;;13.33;4.93;;;;;;;;;;5054796;28;20025;-80
2021/04/17 06:44:21;;;;;;;13.97;4.80;;;;;;;;;;5051444;28;20029;-81
2021/04/17 06:46:47;;;;;;;9.30;4.37;;;;;;;;;;5051704;28;20027;-81
2021/04/17 06:49:12;;;;;;;10.70;5.30;;;;;;;;;;5053387;28;20017;-80
2021/04/17 06:51:41;;;;;;;9.03;4.30;;;;;;;;;;5052686;28;20100;-80
2021/04/17 06:54:06;;;;;;;13.70;5.37;;;;;;;;;;5053949;28;20039;-80
2021/04/17 06:56:32;;;;;;;17.03;4.80;;;;;;;;;;5052300;28;20366;-81
2021/04/17 06:58:57;;;;;;;14.33;4.80;;;;;;;;;;5051882;28;20353;-81
2021/04/17 07:01:22;;;;;;;8.90;4.47;;;;;;;;;;5053597;28;20059;-81
2021/04/17 07:03:48;;;;;;;14.93;5.07;;;;;;;;;;5052923;28;20112;-81
2021/04/17 07:06:14;;;;;;;9.20;4.70;;;;;;;;;;5053149;28;20353;-81
2021/04/17 07:08:39;;;;;;;11.50;4.90;;;;;;;;;;5053949;28;20023;-80
2021/04/17 07:11:05;;;;;;;10.10;5.00;;;;;;;;;;5044419;28;20443;-80
2021/04/17 07:13:30;;;;;;;12.47;4.57;;;;;;;;;;5052944;28;20099;-80
2021/04/17 07:16:04;;;;;;;14.63;5.57;;;;;;;;;;5053799;28;20025;-80
2021/04/17 07:18:30;;;;;;;16.73;5.57;;;;;;;;;;5052398;28;20056;-81
2021/04/17 07:21:16;;;;;;;10.47;4.60;;;;;;;;;;5052601;28;20835;-80
2021/04/17 07:23:42;;;;;;;12.97;4.13;;;;;;;;;;5048779;28;20029;-80
2021/04/17 07:26:07;;;;;;;14.00;5.37;;;;;;;;;;5052921;28;20013;-81
2021/04/17 07:28:34;;;;;;;13.40;5.70;;;;;;;;;;5053792;28;20017;-80
2021/04/17 07:31:00;;;;;;;10.87;4.30;;;;;;;;;;5053322;28;20024;-80
2021/04/17 07:33:29;;;;;;;9.10;4.57;;;;;;;;;;5052586;28;20021;-80
2021/04/17 07:35:54;;;;;;;8.73;4.43;;;;;;;;;;5053437;28;20506;-80
2021/04/17 07:38:46;;;;;;;7.33;3.83;;;;;;;;;;5052528;28;20013;-81
2021/04/17 07:41:13;;;;;;;16.03;5.43;;;;;;;;;;5073530;28;20032;-81
2021/04/17 07:43:45;;;;;;;14.73;5.57;;;;;;;;;;5052263;28;20389;-80
2021/04/17 07:46:10;;;;;;;11.90;4.97;;;;;;;;;;5052035;28;20096;-80
2021/04/17 07:48:35;;;;;;;9.80;3.80;;;;;;;;;;5052748;28;20144;-81
2021/04/17 07:51:02;;;;;;;13.87;5.53;;;;;;;;;;5052556;28;20423;-81
2021/04/17 07:53:35;;;;;;;11.20;4.90;;;;;;;;;;5040634;28;20092;-81
2021/04/17 07:56:19;;;;;;;13.57;5.50;;;;;;;;;;5045150;28;20017;-80
2021/04/17 07:58:45;;;;;;;15.60;5.70;;;;;;;;;;5070473;28;20071;-80
2021/04/17 08:01:10;;;;;;;12.73;4.70;;;;;;;;;;5046656;28;20028;-80
2021/04/17 08:03:36;;;;;;;8.60;4.17;;;;;;;;;;5050880;28;20024;-80
2021/04/17 08:06:01;;;;;;;14.70;3.13;;;;;;;;;;5053078;28;20032;-80
2021/04/17 08:08:26;;;;;;;12.37;4.87;;;;;;;;;;5051754;28;20017;-81
2021/04/17 08:10:51;;;;;;;16.37;5.63;;;;;;;;;;5051421;28;20020;-80
2021/04/17 08:13:17;;;;;;;15.17;5.23;;;;;;;;;;5051340;28;20033;-81
2021/04/17 08:15:42;;;;;;;10.53;4.47;;;;;;;;;;5051606;28;20461;-81
2021/04/17 08:18:07;;;;;;;15.03;5.37;;;;;;;;;;5051425;28;20039;-81
2021/04/17 08:20:32;;;;;;;11.07;4.83;;;;;;;;;;5049467;28;20043;-81
2021/04/17 08:22:58;;;;;;;13.03;4.30;;;;;;;;;;5049507;28;20056;-80
2021/04/17 08:25:24;;;;;;;12.57;4.40;;;;;;;;;;5051247;28;20064;-80
2021/04/17 08:27:50;;;;;;;15.10;6.23;;;;;;;;;;5052628;28;20020;-81
2021/04/17 08:30:19;;;;;;;11.13;4.87;;;;;;;;;;5050871;28;20048;-80
2021/04/17 08:32:46;;;;;;;10.00;4.30;;;;;;;;;;5051104;28;20033;-80
2021/04/17 08:35:11;;;;;;;18.40;5.10;;;;;;;;;;5052849;28;20490;-80
2021/04/17 08:40:32;;;;;;;9.67;5.03;;;;;;;;;;5052603;28;20504;-81
2021/04/17 08:42:57;;;;;;;8.57;4.17;;;;;;;;;;5050749;28;20021;-81
2021/04/17 08:45:22;;;;;;;16.93;6.30;;;;;;;;;;5051332;28;20017;-81
2021/04/17 08:47:52;;;;;;;16.33;4.47;;;;;;;;;;5052518;28;20044;-81
2021/04/17 08:50:27;;;;;;;9.17;3.90;;;;;;;;;;5051321;28;20017;-81
2021/04/17 08:52:56;;;;;;;4.67;2.50;;;;;;;;;;5052462;28;20017;-80
2021/04/17 08:55:21;;;;;;;8.98;3.08;;;;;;;;;;5052341;28;20100;-81
2021/04/17 08:58:06;;;;;;;9.13;3.70;;;;;;;;;;5052223;28;20453;-81
2021/04/17 09:00:32;;;;;;;10.38;4.53;;;;;;;;;;5052967;28;20044;-80
2021/04/17 09:02:57;;;;;;;9.60;4.23;;;;;;;;;;5050893;28;20048;-81
2021/04/17 09:05:22;;;;;;;7.83;3.47;;;;;;;;;;5052286;28;20032;-80
2021/04/17 09:07:47;;;;;;;11.35;3.08;;;;;;;;;;5052443;28;20024;-80
2021/04/17 09:10:22;;;;;;;12.80;4.25;;;;;;;;;;5051893;28;20040;-81
2021/04/17 09:13:07;;;;;;;8.97;3.40;;;;;;;;;;5039958;28;20021;-80
2021/04/17 09:15:51;;;;;;;9.82;3.00;;;;;;;;;;5052922;28;20528;-80
2021/04/17 09:18:32;;;;;;;8.60;3.00;;;;;;;;;;5055148;28;20021;-81
2021/04/17 09:20:58;;;;;;;10.90;2.95;;;;;;;;;;5056213;28;20021;-81
2021/04/17 09:23:35;;;;;;;8.80;3.53;;;;;;;;;;5056377;28;20017;-80
2021/04/17 09:26:00;;;;;;;8.23;3.30;;;;;;;;;;5055112;28;20013;-81
2021/04/17 09:28:34;;;;;;;11.65;4.38;;;;;;;;;;5054358;28;20384;-80
2021/04/17 09:30:59;;;;;;;7.20;3.08;;;;;;;;;;5078237;28;20017;-80
2021/04/17 09:33:24;;;;;;;25.42;7.68;;;;;;;;;;5055491;28;20502;-80
2021/04/17 09:35:49;;;;;;;8.47;3.10;;;;;;;;;;5055441;28;20040;-81
2021/04/17 09:38:16;;;;;;;7.18;3.28;;;;;;;;;;5054007;28;20024;-80
2021/04/17 09:40:49;;;;;;;8.73;2.70;;;;;;;;;;5055902;28;20021;-80
2021/04/17 09:43:21;;;;;;;7.38;2.50;;;;;;;;;;5051171;28;20112;-81
2021/04/17 09:45:49;;;;;;;7.10;3.03;;;;;;;;;;5054289;28;20017;-81
2021/04/17 09:48:15;;;;;;;9.27;2.95;;;;;;;;;;5055259;28;20453;-81
2021/04/17 09:50:40;;;;;;;13.45;3.10;;;;;;;;;;5055480;28;20100;-80
2021/04/17 09:53:21;;;;;;;6.22;3.17;;;;;;;;;;5055133;28;20016;-81
2021/04/17 09:55:58;;;;;;;9.95;3.60;;;;;;;;;;5055650;28;20037;-80
2021/04/17 09:58:31;;;;;;;8.23;3.33;;;;;;;;;;5054023;28;20107;-80
2021/04/17 10:01:04;;;;;;;5.95;2.80;;;;;;;;;;5054158;28;20108;-81
2021/04/17 10:03:36;;;;;;;3.72;1.95;;;;;;;;;;5053716;28;20503;-80
2021/04/17 10:06:01;;;;;;;5.70;2.70;;;;;;;;;;5055574;28;20021;-81
2021/04/17 10:08:27;;;;;;;6.50;2.70;;;;;;;;;;5053916;28;20021;-81
2021/04/17 10:10:52;;;;;;;7.22;2.85;;;;;;;;;;5052264;28;20021;-81
2021/04/17 10:13:35;;;;;;;5.68;2.70;;;;;;;;;;5055146;28;20082;-81
2021/04/17 10:16:00;;;;;;;;;;;;;;;;;;5045001;28;20476;-80
2021/04/17 10:18:25;;;;;;;12.02;3.33;;;;;;;;;;5054988;28;19941;-81
2021/04/17 10:20:51;;;;;;;5.88;3.33;;;;;;;;;;5053375;28;20249;-81
2021/04/17 10:23:16;;;;;;;6.28;2.90;;;;;;;;;;5054853;28;20090;-81
2021/04/17 10:25:42;;;;;;;7.60;2.33;;;;;;;;;;5055011;28;20045;-81
2021/04/17 10:28:18;;;;;;;7.57;2.75;;;;;;;;;;5052525;28;20013;-81
2021/04/17 10:30:45;;;;;;;11.98;3.15;;;;;;;;;;5058124;28;20100;-82
2021/04/17 10:33:17;;;;;;;7.10;2.33;;;;;;;;;;5054924;28;20462;-82
2021/04/17 10:35:42;;;;;;;;;;;;;;;;;;5053237;28;20028;-82
2021/04/17 10:38:07;;;;;;;7.82;2.58;;;;;;;;;;5042754;28;19909;-82
2021/04/17 10:40:33;;;;;;;6.97;2.50;;;;;;;;;;5054532;28;20621;-82
2021/04/17 10:43:04;;;;;;;6.55;3.17;;;;;;;;;;5054028;28;20384;-82
2021/04/17 10:45:29;;;;;;;5.47;2.72;;;;;;;;;;5054686;28;20020;-82
2021/04/17 10:48:02;;;;;;;6.43;3.03;;;;;;;;;;5054392;28;20020;-83
2021/04/17 10:50:28;;;;;;;9.07;2.95;;;;;;;;;;5053181;28;20028;-82
2021/04/17 10:52:56;;;;;;;11.70;2.70;;;;;;;;;;5053678;28;20029;-82
2021/04/17 10:55:40;;;;;;;4.20;2.30;;;;;;;;;;5052044;28;20028;-81
2021/04/17 10:58:06;;;;;;;15.13;3.05;;;;;;;;;;5050615;28;20162;-81
2021/04/17 11:00:33;;;;;;;6.57;2.88;;;;;;;;;;5053386;28;20099;-82
2021/04/17 11:02:58;;;;;;;6.03;2.90;;;;;;;;;;5053148;28;20434;-82
2021/04/17 11:05:28;;;;;;;7.00;3.05;;;;;;;;;;5052562;28;20111;-82
2021/04/17 11:07:57;;;;;;;8.00;3.72;;;;;;;;;;5053105;28;20063;-81
2021/04/17 11:10:27;;;;;;;9.30;3.30;;;;;;;;;;5052674;28;20025;-81
2021/04/17 11:12:52;;;;;;;10.50;3.25;;;;;;;;;;5051503;28;20024;-81
2021/04/17 11:15:19;;;;;;;5.55;2.40;;;;;;;;;;5067039;28;20601;-82
2021/04/17 11:18:04;;;;;;;5.03;2.67;;;;;;;;;;5050708;28;20469;-82
2021/04/17 11:20:29;;;;;;;6.97;2.85;;;;;;;;;;5051517;28;20059;-82
2021/04/17 11:22:55;;;;;;;9.57;3.30;;;;;;;;;;5053475;28;20733;-82
2021/04/17 11:25:20;;;;;;;5.30;2.50;;;;;;;;;;5051495;28;20078;-82
2021/04/17 11:27:45;;;;;;;6.90;2.28;;;;;;;;;;5053601;28;20081;-81
2021/04/17 11:30:11;;;;;;;7.40;2.38;;;;;;;;;;5050460;28;20120;-82
2021/04/17 11:32:36;;;;;;;6.07;2.50;;;;;;;;;;5053514;28;20028;-82
2021/04/17 11:35:05;;;;;;;7.60;3.20;;;;;;;;;;5052180;28;20060;-82
2021/04/17 11:37:31;;;;;;;8.95;3.70;;;;;;;;;;5053010;28;20025;-82
2021/04/17 11:39:57;;;;;;;12.25;3.38;;;;;;;;;;5050889;28;20349;-82
2021/04/17 11:42:22;;;;;;;7.57;3.40;;;;;;;;;;5053628;28;20021;-82
2021/04/17 11:44:47;;;;;;;5.63;2.33;;;;;;;;;;5059465;28;20100;-81
2021/04/17 11:47:12;;;;;;;4.68;2.63;;;;;;;;;;5051922;28;20117;-81
2021/04/17 11:49:38;;;;;;;6.15;2.88;;;;;;;;;;5067484;28;20025;-81
2021/04/17 11:52:04;;;;;;;6.75;2.60;;;;;;;;;;5052333;28;20021;-81
2021/04/17 11:54:29;;;;;;;15.57;3.72;;;;;;;;;;5051231;28;20489;-81
2021/04/17 11:56:54;;;;;;;8.18;2.50;;;;;;;;;;5052593;28;20021;-81
2021/04/17 11:59:19;;;;;;;6.57;2.60;;;;;;;;;;5053243;28;20312;-81
2021/04/17 12:01:44;;;;;;;6.45;3.05;;;;;;;;;;5051085;28;20056;-81
2021/04/17 12:04:10;;;;;;;7.03;1.92;;;;;;;;;;5053156;28;20377;-81
2021/04/17 12:06:58;;;;;;;6.03;2.65;;;;;;;;;;5053248;28;20021;-81
2021/04/17 12:09:23;;;;;;;3.65;2.17;;;;;;;;;;5075125;28;20017;-81
2021/04/17 12:11:49;;;;;;;5.22;2.60;;;;;;;;;;5052900;28;20017;-81
2021/04/17 12:14:14;;;;;;;6.68;2.33;;;;;;;;;;5052035;28;20063;-82
2021/04/17 12:16:39;;;;;;;4.63;2.08;;;;;;;;;;5051747;28;20025;-81
2021/04/17 12:19:04;;;;;;;6.10;2.10;;;;;;;;;;5053152;28;20021;-81
2021/04/17 12:21:29;;;;;;;7.57;2.92;;;;;;;;;;5051652;28;20032;-81
2021/04/17 12:23:55;;;;;;;2.72;1.30;;;;;;;;;;5051626;28;20107;-81
2021/04/17 12:26:20;;;;;;;11.02;2.95;;;;;;;;;;5040190;28;20526;-81
2021/04/17 12:28:45;;;;;;;5.45;2.72;;;;;;;;;;5053137;28;20037;-81
2021/04/17 12:31:10;;;;;;;5.88;2.63;;;;;;;;;;5052834;28;20017;-81
2021/04/17 12:33:35;;;;;;;6.50;2.50;;;;;;;;;;5052604;28;20028;-81
2021/04/17 12:36:01;;;;;;;7.07;2.72;;;;;;;;;;5052696;28;20429;-81
2021/04/17 12:38:26;;;;;;;5.38;2.25;;;;;;;;;;5053337;28;20107;-81
2021/04/17 12:40:54;;;;;;;5.70;1.70;;;;;;;;;;5052657;28;20025;-81
2021/04/17 12:43:20;;;;;;;6.53;2.53;;;;;;;;;;5052660;28;20096;-81
2021/04/17 12:45:45;;;;;;;7.18;2.30;;;;;;;;;;5052585;28;20103;-81
2021/04/17 12:48:10;;;;;;;9.80;2.15;;;;;;;;;;5052493;28;20477;-81
2021/04/17 12:50:35;;;;;;;10.75;3.25;;;;;;;;;;5052400;28;20028;-81
2021/04/17 12:53:01;;;;;;;6.55;2.70;;;;;;;;;;5052524;28;20017;-81
2021/04/17 12:55:26;;;;;;;5.38;2.50;;;;;;;;;;5052326;28;20112;-81
2021/04/17 12:57:52;;;;;;;3.85;2.30;;;;;;;;;;5051146;28;20025;-81
2021/04/17 13:00:17;;;;;;;8.00;2.53;;;;;;;;;;5052220;28;20028;-81
2021/04/17 13:02:42;;;;;;;9.40;2.55;;;;;;;;;;5052721;28;20075;-81
2021/04/17 13:05:08;;;;;;;6.90;2.83;;;;;;;;;;5051172;28;20029;-81
2021/04/17 13:07:33;;;;;;;3.50;2.00;;;;;;;;;;5052440;28;20022;-81
2021/04/17 13:09:58;;;;;;;4.53;2.30;;;;;;;;;;5050872;28;20025;-81
2021/04/17 13:12:24;;;;;;;5.65;2.35;;;;;;;;;;5052275;28;20036;-81
2021/04/17 13:14:49;;;;;;;2.45;1.30;;;;;;;;;;5051063;28;20477;-81
2021/04/17 13:17:14;;;;;;;7.45;2.30;;;;;;;;;;5052185;28;20045;-82
2021/04/17 13:19:39;;;;;;;3.33;1.67;;;;;;;;;;5052472;28;20074;-81
2021/04/17 13:22:04;;;;;;;7.20;2.47;;;;;;;;;;5052159;28;20469;-81
2021/04/17 13:24:30;;;;;;;6.22;2.13;;;;;;;;;;5052483;28;20028;-81
2021/04/17 13:26:55;;;;;;;2.85;2.13;;;;;;;;;;5050240;28;20025;-81
2021/04/17 13:29:20;;;;;;;8.55;2.00;;;;;;;;;;5073439;28;20017;-81
2021/04/17 13:31:45;;;;;;;5.68;2.75;;;;;;;;;;5052396;28;20364;-81
2021/04/17 13:34:11;;;;;;;5.07;2.40;;;;;;;;;;5051886;28;20071;-81
2021/04/17 13:36:36;;;;;;;6.80;2.60;;;;;;;;;;5052198;28;20035;-81
2021/04/17 13:39:02;;;;;;;7.63;2.67;;;;;;;;;;5051056;28;20445;-81
2021/04/17 13:41:27;;;;;;;4.82;1.85;;;;;;;;;;5052069;28;20021;-81
2021/04/17 13:43:52;;;;;;;5.55;2.38;;;;;;;;;;5040581;28;20033;-81
2021/04/17 13:46:17;;;;;;;5.03;2.13;;;;;;;;;;5047819;28;20053;-81
2021/04/17 13:48:43;;;;;;;6.80;2.45;;;;;;;;;;5052061;28;20520;-81
2021/04/17 13:51:08;;;;;;;7.22;2.00;;;;;;;;;;5050520;28;20017;-81
2021/04/17 13:53:34;;;;;;;6.90;2.67;;;;;;;;;;5052160;28;20108;-81
2021/04/17 13:55:59;;;;;;;7.88;2.47;;;;;;;;;;5052063;28;20037;-81
2021/04/17 13:58:24;;;;;;;15.80;3.05;;;;;;;;;;5048718;28;20138;-81
2021/04/17 14:00:50;;;;;;;7.72;2.30;;;;;;;;;;5049445;28;20102;-81
2021/04/17 14:03:15;;;;;;;4.43;2.30;;;;;;;;;;5052089;28;20025;-81
2021/04/17 14:05:40;;;;;;;6.75;2.20;;;;;;;;;;5053339;28;20021;-81
2021/04/17 14:08:06;;;;;;;4.90;2.30;;;;;;;;;;5051465;28;20015;-81
2021/04/17 14:10:31;;;;;;;6.10;2.63;;;;;;;;;;5054190;28;20021;-81
2021/04/17 14:12:57;;;;;;;5.75;2.22;;;;;;;;;;5054438;28;20495;-81
2021/04/17 14:15:22;;;;;;;7.72;2.30;;;;;;;;;;5053750;28;20045;-81
2021/04/17 14:17:47;;;;;;;7.50;2.80;;;;;;;;;;5053140;28;20021;-81
2021/04/17 14:20:12;;;;;;;5.82;2.08;;;;;;;;;;5054055;28;20429;-81
2021/04/17 14:22:38;;;;;;;7.53;1.95;;;;;;;;;;5053804;28;20032;-81
2021/04/17 14:25:03;;;;;;;5.72;2.30;;;;;;;;;;5054105;28;20040;-81
2021/04/17 14:27:28;;;;;;;8.65;2.47;;;;;;;;;;5054314;28;20021;-81
2021/04/17 14:29:54;;;;;;;5.00;2.58;;;;;;;;;;5055152;28;20365;-81
2021/04/17 14:32:19;;;;;;;14.27;2.55;;;;;;;;;;5055034;28;20028;-81
2021/04/17 14:34:44;;;;;;;4.28;2.05;;;;;;;;;;5053775;28;20025;-81